Ava, Ohio
Current Conditions -  °F | °C
As of 2:53 AM on Monday 24 Nov 2014 (Local Time) from KZZV Reporting Station
Light Rain Light Rain  
Wind Chill: 56°   Ceiling: 1200
Heat Index: 56°   Visibility: 6mi
Dew Point: 53°   Wind: 16mph
Humidity: 90%   Direction: 190°S
Pressure: 29.35"   Gusts: 26mph
Location:  39.83°N, 81.57°W
Report Text: KZZV 240753Z AUTO 19014G23KT 6SM -RA BR BKN012 OVC019 13/12 A2935 RMK AO2 SLP934 P0002 T01330117
Loading
Personal Weather Stations






























Interactive Weather Map New forecast layout! Learn more

10-Day Weather Forecast

Advertisements
Track Severe Weather on mobile